Terminal Aerodrome Forecast
Issued by NWS

Current Version | Previous Version | Text Only | Print | Product List | Glossary On
Versions: 1 2 3 4 5 6 7 8 9 10 11 12 13 14 15 16 17 18 19 20 21 22 23 24 25 26 27 28 29 30 31 32 33 34 35 36
000
FTUS41 KBOX 271732
TAFHYA
TAF
KHYA 271732Z 2718/2818 01030G56KT 1/4SM +SN BLSN OVC008
     FM280100 33024G41KT 3/4SM -SN BLSN OVC008
     FM280500 33016G29KT 3SM -SN BLSN OVC010
     FM280800 32014G24KT P6SM OVC015
     FM281100 32013G21KT P6SM OVC030=

USA.gov is the U.S. government's official web portal to all federal, state and local government web resources and services.